Latest Weather Observations for McArthur River Mine

IDD60801

Issued at 12:41 pm CST Saturday 16 October 2021 (issued every 10 minutes, with the page automatically refreshed every 10 minutes)

About weather observations | Map of weather stations | Latest weather observations for NT | Other Formats
Station Details ID: 014704 Name: MCARTHUR RIVER MINE AIRPORT Lat: -16.44 Lon: 136.08 Height: 40.0 m
Data from the previous 72 hours. | See also: Recent months at McArthur River Mine
Date/Time
CST
Temp
°C
App
Temp
°C
Dew
Point
°C
Rel
Hum
%
Delta-T
°C
Wind Press
QNH
hPa
Press
MSL
hPa
Rain since
9am
mm
Dir  Spd
km/h
Gust
km/h
Spd
kts
Gust
kts
16/12:30pm 36.0 34.8 14.1 27 13.5 SSE 13 20 7 11 1010.1 1009.8 0.0
16/12:00pm 35.3 34.5 14.0 28 13.1 NE 11 30 6 16 1010.8 1010.5 0.0
16/11:30am 35.3 34.9 16.1 32 12.2 ESE 13 28 7 15 1011.3 1011.0 0.0
16/11:00am 34.2 32.8 16.5 34 11.2 E 19 30 10 16 1011.6 1011.3 0.0
16/10:30am 33.4 33.4 18.0 40 10.0 ENE 15 26 8 14 1012.1 1011.8 0.0
16/10:00am 33.2 32.0 16.1 35 10.8 ENE 17 30 9 16 1012.4 1012.1 0.0
16/09:30am 32.4 32.2 17.5 41 9.5 ENE 15 26 8 14 1012.7 1012.4 0.0
16/09:00am 30.6 33.5 21.7 59 6.0 ENE 9 15 5 8 1012.8 1012.5 0.2
16/08:30am 29.9 33.1 23.1 67 4.7 E 11 17 6 9 1012.9 1012.6 0.2
16/08:00am 28.4 32.5 22.9 72 3.8 ESE 6 11 3 6 1012.7 1012.4 0.2
16/07:30am 26.0 29.7 22.3 80 2.5 S 6 9 3 5 1012.4 1012.1 0.2
16/07:25am 25.8 29.4 22.3 81 2.4 S 7 9 4 5 1012.3 1012.0 0.2
16/07:00am 24.6 27.9 22.5 88 1.4 SW 9 11 5 6 1011.9 1011.6 0.2
16/06:50am 24.1 27.3 22.4 90 1.1 SW 9 11 5 6 1011.7 1011.4 0.2
16/06:30am 23.5 28.3 22.1 92 0.9 CALM 0 0 0 0 1011.3 1011.0 0.2
16/06:00am 23.4 28.0 21.8 91 1.1 CALM 0 0 0 0 1011.0 1010.7 0.2
16/05:30am 23.8 28.5 21.9 89 1.3 CALM 0 0 0 0 1010.6 1010.3 0.2
16/05:00am 24.4 27.9 21.9 86 1.7 S 6 6 3 3 1010.3 1010.0 0.2
16/04:30am 24.2 27.7 21.9 87 1.5 S 6 9 3 5 1010.0 1009.7 0.2
16/04:00am 24.2 27.7 21.9 87 1.5 S 6 7 3 4 1009.8 1009.5 0.2
16/03:30am 24.1 28.7 21.8 87 1.5 CALM 0 6 0 3 1009.8 1009.5 0.2
16/03:00am 24.1 27.4 21.4 85 1.8 NW 6 9 3 5 1010.0 1009.7 0.2
16/02:30am 24.3 27.4 21.4 84 1.9 WNW 7 11 4 6 1009.8 1009.5 0.2
16/02:00am 24.8 29.2 21.3 81 2.3 CALM 0 0 0 0 1009.9 1009.6 0.2
16/01:30am 24.9 28.6 21.4 81 2.3 SE 4 7 2 4 1010.4 1010.1 0.2
16/01:00am 24.3 27.1 20.8 81 2.3 SE 7 9 4 5 1010.5 1010.2 0.2
16/12:30am 24.5 27.3 20.8 80 2.4 SSE 7 11 4 6 1010.7 1010.4 0.2
16/12:00am 25.0 27.7 20.7 77 2.8 S 7 9 4 5 1010.4 1010.1 0.2
 
Date/Time
CST
Temp
°C
App
Temp
°C
Dew
Point
°C
Rel
Hum
%
Delta-T
°C
Wind Press
QNH
hPa
Press
MSL
hPa
Rain since
9am
mm
Dir  Spd
km/h
Gust
km/h
Spd
kts
Gust
kts
15/11:30pm 25.1 29.3 21.0 78 2.7 CALM 0 0 0 0 1010.3 1010.0 0.2
15/11:00pm 25.3 28.5 20.5 75 3.1 SW 4 7 2 4 1010.7 1010.4 0.2
15/10:30pm 25.5 28.0 20.3 73 3.4 W 7 9 4 5 1010.8 1010.5 0.2
15/10:00pm 26.5 30.3 20.1 68 4.2 CALM 0 0 0 0 1010.7 1010.4 0.2
15/09:30pm 26.9 28.8 19.8 65 4.6 N 9 17 5 9 1010.5 1010.2 0.2
15/09:00pm 27.3 27.9 19.4 62 5.1 N 15 24 8 13 1010.1 1009.8 0.2
15/08:30pm 26.8 26.6 19.4 64 4.8 ENE 19 30 10 16 1010.1 1009.8 0.2
15/08:00pm 27.1 28.1 19.4 62 5.0 E 13 19 7 10 1009.8 1009.5 0.2
15/07:30pm 25.5 25.7 20.5 74 3.3 ENE 20 30 11 16 1010.3 1010.0 0.2
15/07:00pm 24.7 22.6 18.9 70 3.7 ESE 28 44 15 24 1010.2 1009.9 0.2
15/06:52pm 25.2 22.8 19.1 69 3.9 SE 30 52 16 28 1010.3 1010.0 0.2
15/06:36pm 26.7 23.4 19.3 64 4.8 SSE 35 57 19 31 1009.9 1009.6 0.2
15/06:30pm 27.8 26.4 19.6 61 5.3 SSE 26 57 14 31 1009.9 1009.6 0.2
15/06:19pm 28.2 30.5 22.7 72 3.7 SSE 15 26 8 14 1009.3 1009.0 0.2
15/06:00pm 27.7 32.5 22.9 75 3.3 NNE 2 6 1 3 1007.2 1006.9 0.2
15/05:30pm 27.5 31.5 22.7 75 3.3 NW 6 9 3 5 1006.6 1006.3 0.2
15/05:00pm 27.1 29.8 22.1 74 3.4 N 11 20 6 11 1006.8 1006.5 0.2
15/04:30pm 29.0 29.8 21.7 64 4.9 N 20 33 11 18 1007.7 1007.4 0.2
15/04:02pm 30.9 29.2 19.9 52 7.3 N 28 46 15 25 1007.1 1006.8 0.2
15/04:00pm 31.7 30.5 20.0 50 7.7 N 26 44 14 24 1007.1 1006.8 0.2
15/03:54pm 33.1 32.6 19.2 43 9.1 N 20 44 11 24 1006.9 1006.6 0.2
15/03:30pm 36.4 37.7 17.5 32 12.3 N 7 15 4 8 1005.8 1005.5 0.2
15/03:00pm 37.1 38.1 18.6 33 12.2 E 11 19 6 10 1006.1 1005.8 0.2
15/02:30pm 36.4 37.5 18.0 33 12.0 N 9 17 5 9 1006.6 1006.3 0.2
15/02:00pm 37.3 38.3 17.8 31 12.7 ENE 9 20 5 11 1007.1 1006.8 0.2
15/01:30pm 36.5 37.5 19.4 36 11.4 ENE 13 20 7 11 1007.6 1007.3 0.2
15/01:00pm 34.9 37.3 20.1 42 9.9 ENE 7 17 4 9 1008.4 1008.1 0.2
15/12:30pm 35.1 37.2 21.0 43 9.6 SE 11 17 6 9 1009.1 1008.8 0.2
15/12:00pm 34.5 37.5 21.2 46 9.0 ESE 7 11 4 6 1009.6 1009.3 0.2
15/11:30am 34.9 38.8 22.9 49 8.3 ESE 7 13 4 7 1010.1 1009.8 0.2
15/11:00am 34.0 36.7 22.1 50 8.1 E 11 19 6 10 1010.5 1010.2 0.2
15/10:30am 33.3 36.8 23.6 56 6.8 SSE 11 17 6 9 1010.9 1010.6 0.2
15/10:00am 32.8 36.8 23.7 58 6.3 E 9 15 5 8 1011.2 1010.9 0.2
15/09:30am 31.1 34.3 23.7 64 5.1 SE 13 19 7 10 1011.3 1011.0 0.2
15/09:00am 30.5 33.8 23.2 65 5.0 ESE 11 17 6 9 1011.5 1011.2 13.8
15/08:30am 29.9 33.4 23.6 69 4.4 E 11 15 6 8 1011.4 1011.1 13.8
15/08:00am 28.9 33.2 24.2 76 3.3 ESE 9 13 5 7 1011.1 1010.8 13.8
15/07:30am 27.5 31.7 24.1 82 2.4 SE 9 13 5 7 1010.7 1010.4 13.8
15/07:00am 26.1 30.6 24.0 88 1.4 SE 7 11 4 6 1010.4 1010.1 13.8
15/06:30am 24.7 29.6 23.7 94 0.7 SE 4 7 2 4 1010.1 1009.8 13.8
15/06:00am 24.5 30.1 23.5 94 0.7 CALM 0 0 0 0 1009.8 1009.5 13.8
15/05:30am 24.7 30.1 23.3 92 1.0 CALM 0 0 0 0 1009.6 1009.3 13.8
15/05:00am 25.3 30.8 23.4 89 1.3 CALM 0 0 0 0 1009.4 1009.1 13.8
15/04:30am 25.6 31.0 23.3 87 1.6 CALM 0 0 0 0 1008.9 1008.6 13.8
15/04:00am 25.7 31.0 23.0 85 1.8 CALM 0 0 0 0 1008.7 1008.4 13.8
15/03:30am 25.8 29.7 22.9 84 2.0 N 7 11 4 6 1008.4 1008.1 13.8
15/03:00am 25.6 29.7 23.3 87 1.6 N 7 9 4 5 1008.4 1008.1 13.8
15/02:30am 25.2 29.3 23.3 89 1.3 NE 7 9 4 5 1008.6 1008.3 13.8
15/02:00am 25.4 29.3 23.6 90 1.2 NNW 9 11 5 6 1008.7 1008.4 13.8
15/01:30am 25.4 29.7 23.6 90 1.2 N 7 11 4 6 1009.1 1008.8 13.8
15/01:00am 25.5 29.5 23.7 90 1.2 N 9 13 5 7 1009.4 1009.1 13.8
15/12:30am 25.4 29.7 23.6 90 1.2 N 7 9 4 5 1010.3 1010.0 13.8
15/12:00am 25.9 30.4 23.6 87 1.6 WSW 6 13 3 7 1010.5 1010.2 13.8
 
Date/Time
CST
Temp
°C
App
Temp
°C
Dew
Point
°C
Rel
Hum
%
Delta-T
°C
Wind Press
QNH
hPa
Press
MSL
hPa
Rain since
9am
mm
Dir  Spd
km/h
Gust
km/h
Spd
kts
Gust
kts
14/11:30pm 25.5 29.8 23.7 90 1.2 S 7 9 4 5 1009.9 1009.6 13.8
14/11:00pm 25.1 29.7 23.2 89 1.3 S 4 7 2 4 1009.7 1009.4 13.8
14/10:30pm 25.9 29.7 22.8 83 2.1 SW 7 9 4 5 1009.7 1009.4 13.8
14/10:00pm 26.0 30.0 22.7 82 2.2 S 6 7 3 4 1009.5 1009.2 13.8
14/09:30pm 26.6 31.5 22.4 78 2.8 CALM 0 0 0 0 1009.5 1009.2 13.8
14/09:00pm 27.1 30.4 22.5 76 3.1 NNE 9 13 5 7 1008.7 1008.4 13.8
14/08:30pm 27.1 31.1 23.8 82 2.3 ENE 9 13 5 7 1008.3 1008.0 13.8
14/08:00pm 26.3 31.4 24.7 91 1.1 ENE 6 9 3 5 1008.4 1008.1 13.8
14/07:30pm 26.9 32.2 24.4 86 1.7 SSW 4 11 2 6 1008.8 1008.5 13.8
14/07:00pm 27.2 32.3 24.7 86 1.7 E 6 9 3 5 1008.0 1007.7 13.8
14/06:30pm 27.0 31.5 23.9 83 2.1 NNE 7 13 4 7 1007.8 1007.5 13.8
14/06:00pm 26.4 28.9 22.5 79 2.6 ENE 13 19 7 10 1007.5 1007.2 13.8
14/05:56pm 26.1 28.8 23.4 85 1.8 ENE 15 24 8 13 1007.6 1007.3 13.8
14/05:54pm 26.1 28.4 23.4 85 1.8 ENE 17 24 9 13 1007.7 1007.4 13.8
14/05:50pm 26.1 27.5 22.8 82 2.2 NE 20 33 11 18 1007.7 1007.4 13.8
14/05:42pm 25.6 23.8 21.1 76 3.0 NNE 32 57 17 31 1007.4 1007.1 13.8
14/05:35pm 25.7 27.2 22.0 80 2.5 NNW 17 50 9 27 1007.7 1007.4 12.6
14/05:30pm 26.1 30.0 23.6 86 1.7 WSW 9 15 5 8 1008.5 1008.2 5.2
14/05:22pm 27.5 31.3 22.7 75 3.3 SSE 7 19 4 10 1008.3 1008.0 2.6
14/05:20pm 28.2 31.7 22.9 73 3.6 SSE 9 24 5 13 1008.3 1008.0 2.0
14/05:09pm 29.1 28.4 21.8 64 4.9 SSW 28 43 15 23 1007.9 1007.6 1.2
14/05:00pm 27.9 29.9 22.2 71 3.8 SW 15 30 8 16 1007.9 1007.6 1.2
14/04:55pm 27.7 31.4 22.6 74 3.5 N 7 17 4 9 1007.5 1007.2 1.2
14/04:30pm 27.2 29.2 22.2 74 3.4 ENE 15 24 8 13 1006.5 1006.2 1.2
14/04:00pm 26.7 28.9 23.2 81 2.4 ENE 17 24 9 13 1006.0 1005.7 1.2
14/03:30pm 25.8 28.0 21.9 79 2.6 NNE 13 22 7 12 1007.0 1006.7 1.2
14/03:21pm 25.8 27.0 21.5 77 2.9 NE 17 28 9 15 1006.3 1006.0 1.2
14/03:11pm 24.8 24.4 21.7 83 2.1 NNE 26 46 14 25 1006.1 1005.8 1.2
14/03:03pm 25.1 23.2 21.4 80 2.5 N 33 56 18 30 1005.9 1005.6 1.0
14/03:00pm 25.0 24.0 21.9 83 2.1 N 30 56 16 30 1006.0 1005.7 0.8
14/02:33pm 28.3 27.2 22.5 71 3.9 NNE 32 50 17 27 1006.1 1005.8 0.2
14/02:32pm 28.4 27.2 22.2 69 4.2 NNE 32 50 17 27 1005.9 1005.6 0.2
14/02:30pm 28.6 26.8 22.3 68 4.3 N 35 63 19 34 1005.7 1005.4 0.2
14/02:28pm 28.9 27.3 22.6 69 4.3 N 35 63 19 34 1005.5 1005.2 0.2
14/02:21pm 31.8 32.1 20.7 51 7.4 NNW 20 63 11 34 1005.3 1005.0 0.0
14/02:20pm 34.7 35.0 20.3 43 9.6 NNW 19 37 10 20 1005.2 1004.9 0.0
14/02:00pm 37.2 38.8 18.2 32 12.5 NNW 7 17 4 9 1005.2 1004.9 0.0
14/01:30pm 37.2 39.0 18.7 33 12.2 W 7 13 4 7 1005.6 1005.3 0.0
14/01:00pm 36.4 36.8 18.9 35 11.6 NW 15 24 8 13 1006.6 1006.3 0.0
14/12:30pm 37.3 38.4 19.7 35 11.8 NW 13 22 7 12 1007.3 1007.0 0.0
14/12:00pm 35.3 36.7 20.4 41 10.0 NNW 13 20 7 11 1008.0 1007.7 0.0
14/11:30am 35.3 38.3 21.2 44 9.6 N 7 13 4 7 1008.5 1008.2 0.0
14/11:00am 33.4 36.4 21.2 48 8.2 WNW 7 11 4 6 1009.1 1008.8 0.0
14/10:30am 33.1 36.6 22.2 52 7.5 W 7 11 4 6 1009.4 1009.1 0.0
14/10:00am 32.3 35.8 22.1 55 7.0 NW 7 13 4 7 1009.6 1009.3 0.0
14/09:30am 31.8 36.0 23.1 60 6.0 SW 6 11 3 6 1009.9 1009.6 0.0
14/09:00am 30.3 35.7 23.2 65 4.9 CALM 0 7 0 4 1010.2 1009.9 9.2
14/08:30am 29.3 33.5 22.5 67 4.6 SSW 4 9 2 5 1010.2 1009.9 9.2
14/08:00am 29.3 32.9 22.3 66 4.7 SSW 7 11 4 6 1010.0 1009.7 9.2
14/07:30am 27.7 32.0 23.3 77 3.0 S 6 7 3 4 1009.6 1009.3 9.2
14/07:00am 26.7 31.2 23.0 80 2.5 S 4 6 2 3 1009.4 1009.1 9.2
14/06:30am 26.8 30.5 22.6 78 2.8 SSW 7 9 4 5 1009.3 1009.0 9.2
14/06:00am 26.9 30.2 22.5 77 3.0 SW 9 11 5 6 1008.8 1008.5 9.2
14/05:30am 26.7 32.0 23.0 80 2.5 CALM 0 6 0 3 1007.8 1007.5 9.2
14/05:00am 26.9 30.6 22.5 77 3.0 S 7 9 4 5 1007.3 1007.0 9.2
14/04:30am 27.2 30.6 21.7 72 3.7 NNW 6 11 3 6 1006.7 1006.4 9.2
14/04:00am 27.2 29.4 20.5 67 4.4 NNW 9 15 5 8 1006.0 1005.7 9.2
14/03:30am 27.3 29.7 21.6 71 3.8 N 11 17 6 9 1005.8 1005.5 9.2
14/03:00am 27.0 30.5 23.5 81 2.4 ENE 11 15 6 8 1005.9 1005.6 9.2
14/02:30am 26.5 30.9 23.8 85 1.9 E 7 11 4 6 1006.4 1006.1 9.2
14/02:00am 26.8 31.3 23.7 83 2.1 NW 6 7 3 4 1007.0 1006.7 9.2
14/01:30am 26.7 31.8 24.0 85 1.9 N 4 9 2 5 1007.5 1007.2 9.2
14/01:00am 27.3 31.4 23.3 79 2.7 WSW 7 13 4 7 1008.2 1007.9 9.2
14/12:30am 27.9 31.9 23.1 75 3.3 NNE 7 13 4 7 1007.4 1007.1 9.2
14/12:00am 27.4 31.2 22.8 76 3.1 N 7 11 4 6 1007.6 1007.3 9.2
 
Date/Time
CST
Temp
°C
App
Temp
°C
Dew
Point
°C
Rel
Hum
%
Delta-T
°C
Wind Press
QNH
hPa
Press
MSL
hPa
Rain since
9am
mm
Dir  Spd
km/h
Gust
km/h
Spd
kts
Gust
kts
13/11:30pm 27.7 31.1 22.0 71 3.8 N 7 11 4 6 1007.9 1007.6 9.2
13/11:00pm 27.6 30.8 21.2 68 4.3 ENE 6 11 3 6 1008.3 1008.0 9.2
13/10:30pm 27.8 31.6 20.9 66 4.6 NNE 2 7 1 4 1008.6 1008.3 9.2
13/10:00pm 28.6 31.1 20.3 60 5.5 NNW 7 11 4 6 1008.3 1008.0 9.2
13/09:30pm 28.9 30.3 18.7 54 6.6 NE 9 15 5 8 1008.1 1007.8 9.2
13/09:00pm 29.4 30.5 17.9 50 7.4 ENE 9 15 5 8 1007.8 1007.5 9.2
13/08:30pm 29.9 30.5 16.7 45 8.3 ENE 9 13 5 7 1007.4 1007.1 9.2
13/08:00pm 30.2 30.6 17.3 46 8.2 NE 11 17 6 9 1007.0 1006.7 9.2
13/07:30pm 28.9 32.1 21.7 65 4.8 E 7 11 4 6 1007.2 1006.9 9.2
13/07:00pm 29.4 31.4 20.8 60 5.7 NE 11 13 6 7 1006.8 1006.5 9.2
13/06:30pm 27.9 32.6 24.3 81 2.5 ESE 7 11 4 6 1006.3 1006.0 9.2
13/06:00pm 28.5 34.0 24.7 80 2.7 NE 4 9 2 5 1005.4 1005.1 9.2
13/05:37pm 27.4 32.1 25.0 87 1.7 ENE 9 13 5 7 1005.4 1005.1 9.2
13/05:30pm 27.2 31.5 24.3 84 2.0 N 9 17 5 9 1005.5 1005.2 9.2
13/05:29pm 27.1 30.7 23.8 82 2.3 N 11 20 6 11 1005.5 1005.2 9.2
13/05:13pm 26.8 23.8 21.3 72 3.7 SW 39 80 21 43 1006.5 1006.2 7.2
13/05:12pm 26.5 23.0 21.9 76 3.1 SW 43 80 23 43 1006.5 1006.2 7.0
13/05:09pm 25.7 20.6 21.4 77 2.9 SW 50 80 27 43 1006.6 1006.3 4.4
13/05:00pm 24.4 21.2 20.3 78 2.7 SW 37 83 20 45 1006.4 1006.1 0.6
13/04:59pm 25.0 22.6 20.0 74 3.2 SW 32 83 17 45 1006.2 1005.9 0.0
13/04:57pm 30.4 29.6 18.5 49 7.7 SW 20 67 11 36 1006.4 1006.1 0.0
13/04:54pm 33.0 32.8 17.6 40 9.9 ENE 15 35 8 19 1006.1 1005.8 0.0
13/04:40pm 36.5 34.9 16.1 29 13.0 NNE 19 30 10 16 1004.1 1003.8 0.0
13/04:30pm 36.7 35.4 16.8 30 12.8 NNE 19 28 10 15 1004.2 1003.9 0.0
13/04:00pm 36.9 34.9 17.5 32 12.6 NNE 24 35 13 19 1004.2 1003.9 0.0
13/03:30pm 39.3 38.3 15.6 24 15.2 ENE 15 24 8 13 1004.2 1003.9 0.0
13/03:00pm 38.7 38.2 13.8 22 15.5 NNW 9 17 5 9 1004.3 1004.0 0.0
13/02:30pm 38.6 37.1 16.3 27 14.4 NW 19 30 10 16 1004.7 1004.4 0.0
13/02:00pm 37.8 37.9 15.6 27 14.1 NNW 9 13 5 7 1005.3 1005.0 0.0
13/01:30pm 39.5 39.2 16.4 25 14.9 N 13 20 7 11 1005.8 1005.5 0.0
13/01:00pm 38.4 38.3 16.1 27 14.3 NNW 11 24 6 13 1006.2 1005.9 0.0

Other formats

Comma delimited format used in spreadsheet applications
http://www.bom.gov.au/fwo/IDD60801/IDD60801.94239.axf

JavaScript Object Notation format (JSON) in row-major order
http://www.bom.gov.au/fwo/IDD60801/IDD60801.94239.json

Data quality

Most of these data are generated automatically and are frequently updated. Quality checks on data are not normally performed. It is possible for incorrect values to appear. Refer to information at About Latest Weather Observations and please check the disclaimer before using these data.